Time;durP1;ratioP1;P1;durP2;ratioP2;P2;SDS_P1;SDS_P2;PMS_P1;PMS_P2;Temp;Humidity;BMP_temperature;BMP_pressure;BME280_temperature;BME280_humidity;BME280_pressure;Samples;Min_cycle;Max_cycle;Signal;HPM_P1;HPM_P2
2023/01/06 00:01:47;;;;;;;52.75;49.55;;;;;;;;;;10034349;28;20059;-71
2023/01/06 00:06:43;;;;;;;53.10;49.80;;;;;;;;;;10033094;28;20051;-71
2023/01/06 00:11:39;;;;;;;51.70;47.92;;;;;;;;;;10036899;28;20524;-71
2023/01/06 00:16:35;;;;;;;54.45;50.97;;;;;;;;;;10025200;28;20142;-70
2023/01/06 00:21:32;;;;;;;56.65;52.65;;;;;;;;;;10031563;28;20529;-72
2023/01/06 00:26:28;;;;;;;55.88;51.28;;;;;;;;;;10025798;28;20052;-71
2023/01/06 00:31:24;;;;;;;56.08;51.72;;;;;;;;;;10031333;28;20083;-71
2023/01/06 00:36:21;;;;;;;60.75;55.75;;;;;;;;;;10032944;28;20154;-70
2023/01/06 00:46:37;;;;;;;60.88;56.17;;;;;;;;;;10009766;28;20075;-70
2023/01/06 00:51:35;;;;;;;61.85;57.05;;;;;;;;;;10030804;28;20489;-70
2023/01/06 00:56:34;;;;;;;60.38;55.33;;;;;;;;;;10031578;28;20059;-70
2023/01/06 01:01:30;;;;;;;59.38;54.72;;;;;;;;;;10034825;28;20056;-70
2023/01/06 01:06:26;;;;;;;61.10;56.47;;;;;;;;;;10030104;28;20459;-69
2023/01/06 01:16:38;;;;;;;62.58;57.70;;;;;;;;;;10027369;28;20062;-70
2023/01/06 01:21:35;;;;;;;58.30;54.13;;;;;;;;;;10031075;28;20075;-70
2023/01/06 01:26:31;;;;;;;61.00;56.75;;;;;;;;;;10029422;28;20059;-70
2023/01/06 01:31:27;;;;;;;60.08;55.22;;;;;;;;;;10030415;28;20512;-71
2023/01/06 01:36:23;;;;;;;60.13;55.85;;;;;;;;;;10028874;28;20051;-68
2023/01/06 01:41:21;;;;;;;61.75;56.95;;;;;;;;;;10027956;28;20061;-69
2023/01/06 01:46:21;;;;;;;59.72;55.28;;;;;;;;;;10026839;28;20059;-67
2023/01/06 01:51:20;;;;;;;59.83;55.30;;;;;;;;;;10030150;28;20049;-70
2023/01/06 01:56:20;;;;;;;64.53;59.67;;;;;;;;;;10029832;28;20056;-68
2023/01/06 02:01:16;;;;;;;62.03;57.80;;;;;;;;;;10031203;28;20051;-70
2023/01/06 02:06:15;;;;;;;71.80;65.88;;;;;;;;;;10030991;28;20059;-70
2023/01/06 02:11:12;;;;;;;63.25;58.70;;;;;;;;;;10029610;28;20138;-68
2023/01/06 02:16:21;;;;;;;66.28;60.70;;;;;;;;;;10028612;28;20504;-71
2023/01/06 02:21:17;;;;;;;82.28;74.13;;;;;;;;;;10031706;28;20051;-70
2023/01/06 02:26:26;;;;;;;63.95;58.60;;;;;;;;;;10026763;28;20499;-69
2023/01/06 02:31:22;;;;;;;58.22;53.92;;;;;;;;;;10025702;28;20536;-70
2023/01/06 02:36:27;;;;;;;63.20;58.60;;;;;;;;;;10025242;28;20063;-68
2023/01/06 02:41:27;;;;;;;61.28;56.80;;;;;;;;;;10027269;28;20051;-69
2023/01/06 02:46:23;;;;;;;62.17;57.95;;;;;;;;;;10025564;28;20056;-69
2023/01/06 02:51:25;;;;;;;60.28;55.97;;;;;;;;;;10029800;28;20044;-69
2023/01/06 02:56:23;;;;;;;63.93;59.40;;;;;;;;;;10026240;28;20432;-69
2023/01/06 03:01:22;;;;;;;59.65;55.47;;;;;;;;;;10033309;28;20135;-70
2023/01/06 03:06:24;;;;;;;63.90;59.13;;;;;;;;;;10045904;28;20131;-70
2023/01/06 03:11:21;;;;;;;61.63;56.97;;;;;;;;;;10041338;28;20106;-69
2023/01/06 03:16:18;;;;;;;62.90;58.20;;;;;;;;;;10045463;28;20069;-69
2023/01/06 03:21:21;;;;;;;63.88;58.65;;;;;;;;;;10031554;28;20107;-69
2023/01/06 03:26:19;;;;;;;68.38;63.28;;;;;;;;;;10035536;28;20051;-69
2023/01/06 03:31:28;;;;;;;67.50;62.45;;;;;;;;;;10031000;28;20051;-69
2023/01/06 03:36:24;;;;;;;67.80;62.78;;;;;;;;;;10035858;28;20051;-68
2023/01/06 03:43:10;;;;;;;70.13;65.13;;;;;;;;;;10035814;28;20122;-70
2023/01/06 03:46:49;;;;;;;70.13;64.55;;;;;;;;;;10023066;28;20075;-70
2023/01/06 03:52:12;;;;;;;67.70;62.42;;;;;;;;;;10039053;28;20087;-70
2023/01/06 03:57:08;;;;;;;69.35;63.60;;;;;;;;;;10031844;28;20067;-69
2023/01/06 04:02:05;;;;;;;73.22;66.85;;;;;;;;;;10033270;28;20483;-68
2023/01/06 04:07:01;;;;;;;70.28;64.93;;;;;;;;;;10037790;28;20074;-70
2023/01/06 04:17:12;;;;;;;68.25;62.58;;;;;;;;;;10030060;28;20525;-69
2023/01/06 04:22:09;;;;;;;69.82;64.22;;;;;;;;;;10037493;28;20048;-70
2023/01/06 04:27:05;;;;;;;68.90;62.88;;;;;;;;;;10024637;28;20146;-70
2023/01/06 04:32:01;;;;;;;66.47;60.65;;;;;;;;;;10030382;28;20137;-70
2023/01/06 04:36:57;;;;;;;68.38;62.20;;;;;;;;;;10028648;28;20506;-70
2023/01/06 04:41:54;;;;;;;67.95;62.28;;;;;;;;;;10043381;28;20047;-70
2023/01/06 04:46:50;;;;;;;67.43;61.58;;;;;;;;;;10038266;28;20135;-70
2023/01/06 04:51:46;;;;;;;65.72;59.92;;;;;;;;;;10031076;28;20060;-68
2023/01/06 04:56:42;;;;;;;66.25;60.42;;;;;;;;;;10032139;28;20053;-69
2023/01/06 05:01:39;;;;;;;70.00;63.85;;;;;;;;;;10034613;28;20101;-70
2023/01/06 05:06:35;;;;;;;69.35;62.92;;;;;;;;;;10030519;28;20081;-68
2023/01/06 05:11:32;;;;;;;67.15;61.10;;;;;;;;;;10028773;28;20058;-69
2023/01/06 05:16:30;;;;;;;70.07;63.67;;;;;;;;;;10024717;28;20047;-69
2023/01/06 05:21:28;;;;;;;69.60;62.60;;;;;;;;;;10028445;28;20626;-69
2023/01/06 05:26:28;;;;;;;68.20;61.35;;;;;;;;;;10023261;28;20084;-68
2023/01/06 05:31:24;;;;;;;67.53;60.85;;;;;;;;;;10016131;28;20129;-69
2023/01/06 05:36:20;;;;;;;71.15;64.07;;;;;;;;;;10018366;28;20150;-70
2023/01/06 05:41:17;;;;;;;66.30;59.83;;;;;;;;;;10017082;28;20048;-70
2023/01/06 05:46:14;;;;;;;66.00;59.42;;;;;;;;;;10020125;28;20592;-70
2023/01/06 05:51:14;;;;;;;65.80;59.55;;;;;;;;;;10022054;28;20528;-70
2023/01/06 05:56:12;;;;;;;68.53;61.85;;;;;;;;;;10021910;28;20056;-69
2023/01/06 06:01:14;;;;;;;65.90;59.38;;;;;;;;;;10037083;28;20043;-70
2023/01/06 06:06:12;;;;;;;65.03;58.47;;;;;;;;;;10022311;28;20505;-69
2023/01/06 06:11:09;;;;;;;65.53;58.88;;;;;;;;;;10017082;28;20063;-69
2023/01/06 06:16:07;;;;;;;66.57;60.08;;;;;;;;;;10022927;28;20130;-69
2023/01/06 06:21:03;;;;;;;65.35;59.22;;;;;;;;;;10019973;28;20561;-69
2023/01/06 06:26:01;;;;;;;65.35;59.55;;;;;;;;;;10015948;28;20174;-71
2023/01/06 06:31:08;;;;;;;66.35;60.22;;;;;;;;;;10017626;28;20056;-70
2023/01/06 06:36:05;;;;;;;70.45;64.07;;;;;;;;;;10028031;28;20047;-71
2023/01/06 06:41:02;;;;;;;68.18;61.88;;;;;;;;;;10038362;28;20518;-70
2023/01/06 06:45:59;;;;;;;68.00;61.75;;;;;;;;;;10020578;28;20134;-70
2023/01/06 06:50:59;;;;;;;72.43;65.97;;;;;;;;;;10029010;28;20379;-70
2023/01/06 06:55:55;;;;;;;72.93;66.57;;;;;;;;;;10032991;28;20502;-71
2023/01/06 07:00:53;;;;;;;73.50;67.22;;;;;;;;;;10033994;28;20039;-71
2023/01/06 07:05:50;;;;;;;72.97;66.32;;;;;;;;;;10031456;28;20143;-71
2023/01/06 07:10:46;;;;;;;68.85;62.97;;;;;;;;;;10022817;28;20048;-71
2023/01/06 07:15:43;;;;;;;70.28;64.03;;;;;;;;;;10030470;28;20047;-71
2023/01/06 07:20:39;;;;;;;73.55;67.40;;;;;;;;;;10028012;28;20048;-71
2023/01/06 07:25:35;;;;;;;68.38;62.72;;;;;;;;;;10028607;28;20071;-70
2023/01/06 07:30:32;;;;;;;72.10;66.40;;;;;;;;;;10026898;28;20111;-71
2023/01/06 07:35:29;;;;;;;71.40;65.70;;;;;;;;;;10028206;28;20047;-71
2023/01/06 07:40:25;;;;;;;69.32;63.75;;;;;;;;;;10029167;28;20160;-70
2023/01/06 07:45:22;;;;;;;69.05;63.35;;;;;;;;;;10029298;28;20478;-70
2023/01/06 07:50:18;;;;;;;68.97;63.00;;;;;;;;;;10028763;28;20075;-70
2023/01/06 07:55:14;;;;;;;70.63;64.50;;;;;;;;;;10032132;28;20142;-70
2023/01/06 08:00:11;;;;;;;67.65;61.95;;;;;;;;;;10027770;28;20281;-70
2023/01/06 08:05:07;;;;;;;67.90;62.35;;;;;;;;;;10026355;28;20059;-70
2023/01/06 08:10:04;;;;;;;71.20;65.32;;;;;;;;;;10028653;28;20126;-69
2023/01/06 08:15:00;;;;;;;71.80;65.45;;;;;;;;;;10027558;29;20052;-69
2023/01/06 08:19:57;;;;;;;68.53;62.83;;;;;;;;;;10025092;29;20040;-69
2023/01/06 08:24:53;;;;;;;70.05;64.57;;;;;;;;;;10022210;28;20043;-69
2023/01/06 08:29:50;;;;;;;69.97;64.57;;;;;;;;;;10025383;28;20044;-69
2023/01/06 08:34:47;;;;;;;70.93;65.65;;;;;;;;;;10020270;28;20078;-69
2023/01/06 08:39:44;;;;;;;66.03;61.10;;;;;;;;;;10020766;28;20055;-69
2023/01/06 08:44:40;;;;;;;63.20;58.55;;;;;;;;;;10024133;28;20040;-68
2023/01/06 08:49:37;;;;;;;62.45;58.15;;;;;;;;;;10018585;28;20466;-69
2023/01/06 08:54:33;;;;;;;56.67;52.75;;;;;;;;;;10029574;28;20072;-69
2023/01/06 08:59:29;;;;;;;54.97;50.65;;;;;;;;;;10032916;28;20070;-69
2023/01/06 09:04:26;;;;;;;57.53;53.30;;;;;;;;;;10029900;28;20125;-68
2023/01/06 09:09:22;;;;;;;57.67;53.55;;;;;;;;;;10031610;28;20048;-69
2023/01/06 09:14:18;;;;;;;58.30;54.28;;;;;;;;;;10027486;28;20052;-68
2023/01/06 09:19:15;;;;;;;61.70;57.15;;;;;;;;;;10027638;28;20043;-68
2023/01/06 09:24:12;;;;;;;59.75;55.42;;;;;;;;;;10027998;28;20506;-69
2023/01/06 09:29:09;;;;;;;59.75;55.63;;;;;;;;;;10030278;28;20115;-68
2023/01/06 09:34:05;;;;;;;62.67;58.30;;;;;;;;;;10028217;28;20134;-68
2023/01/06 09:39:01;;;;;;;60.63;56.10;;;;;;;;;;10023544;28;20135;-69
2023/01/06 09:43:58;;;;;;;57.63;53.40;;;;;;;;;;10027495;28;20063;-69
2023/01/06 09:49:00;;;;;;;57.33;53.05;;;;;;;;;;10017165;28;20058;-68
2023/01/06 09:54:14;;;;;;;58.78;54.70;;;;;;;;;;10009091;28;20078;-68
2023/01/06 09:59:13;;;;;;;53.58;49.30;;;;;;;;;;10019642;28;20107;-68
2023/01/06 10:04:24;;;;;;;56.33;52.25;;;;;;;;;;10021357;28;20059;-68
2023/01/06 10:09:43;;;;;;;61.08;57.08;;;;;;;;;;10025039;28;20044;-68
2023/01/06 10:14:58;;;;;;;58.33;54.50;;;;;;;;;;10029671;28;20056;-67
2023/01/06 10:20:05;;;;;;;61.42;57.25;;;;;;;;;;10028930;28;20055;-69
2023/01/06 10:25:20;;;;;;;59.50;55.60;;;;;;;;;;10031705;28;20062;-68
2023/01/06 10:30:24;;;;;;;56.58;52.88;;;;;;;;;;10029481;28;20058;-68
2023/01/06 10:35:26;;;;;;;57.78;53.75;;;;;;;;;;10026388;28;20630;-68
2023/01/06 10:40:26;;;;;;;53.47;49.80;;;;;;;;;;10029884;28;20395;-68
2023/01/06 10:45:43;;;;;;;53.03;49.30;;;;;;;;;;10030683;28;20135;-68
2023/01/06 10:50:40;;;;;;;50.30;46.70;;;;;;;;;;10026387;28;20532;-67
2023/01/06 10:55:51;;;;;;;53.65;49.95;;;;;;;;;;10031310;28;20119;-67
2023/01/06 11:00:58;;;;;;;53.00;49.35;;;;;;;;;;10019025;28;20063;-67
2023/01/06 11:05:59;;;;;;;53.13;49.42;;;;;;;;;;10021774;28;20760;-67
2023/01/06 11:10:56;;;;;;;55.05;50.95;;;;;;;;;;10026819;28;20526;-67
2023/01/06 11:15:54;;;;;;;51.40;47.53;;;;;;;;;;10021532;28;20063;-68
2023/01/06 11:21:02;;;;;;;54.08;49.83;;;;;;;;;;10027765;28;20048;-68
2023/01/06 11:25:59;;;;;;;55.40;51.60;;;;;;;;;;10027642;28;20513;-68
2023/01/06 11:31:01;;;;;;;54.28;50.47;;;;;;;;;;10027967;28;20040;-68
2023/01/06 11:35:57;;;;;;;53.55;49.80;;;;;;;;;;10028468;28;20054;-67
2023/01/06 11:40:54;;;;;;;61.20;57.38;;;;;;;;;;10039136;28;20043;-68
2023/01/06 11:45:55;;;;;;;60.65;57.08;;;;;;;;;;10024913;28;20047;-67
2023/01/06 11:50:54;;;;;;;49.40;46.22;;;;;;;;;;10010762;28;20052;-67
2023/01/06 11:56:01;;;;;;;35.63;33.55;;;;;;;;;;10021472;28;20146;-68
2023/01/06 12:01:10;;;;;;;32.08;30.27;;;;;;;;;;10020603;28;20139;-67
2023/01/06 12:06:06;;;;;;;30.65;28.90;;;;;;;;;;10022095;28;20135;-68
2023/01/06 12:11:06;;;;;;;26.90;25.30;;;;;;;;;;10020817;28;20139;-68
2023/01/06 12:16:11;;;;;;;25.50;23.80;;;;;;;;;;10024417;28;20050;-68
2023/01/06 12:21:11;;;;;;;13.15;11.93;;;;;;;;;;10020163;28;20050;-68
2023/01/06 12:26:11;;;;;;;10.27;9.35;;;;;;;;;;10024076;28;20758;-68
2023/01/06 12:31:26;;;;;;;9.82;8.82;;;;;;;;;;10024294;28;20051;-68
2023/01/06 12:36:26;;;;;;;11.27;7.70;;;;;;;;;;10019131;28;20058;-68
2023/01/06 12:41:38;;;;;;;9.25;8.57;;;;;;;;;;10023172;28;20155;-68
2023/01/06 12:46:41;;;;;;;12.15;9.70;;;;;;;;;;10021180;28;20044;-67
2023/01/06 12:51:39;;;;;;;11.05;9.90;;;;;;;;;;10021175;28;20107;-68
2023/01/06 12:56:51;;;;;;;13.75;10.13;;;;;;;;;;10026348;28;20098;-67
2023/01/06 13:01:50;;;;;;;10.85;9.93;;;;;;;;;;10026876;28;20052;-67
2023/01/06 13:06:46;;;;;;;12.75;11.60;;;;;;;;;;10022857;28;20064;-68
2023/01/06 13:11:46;;;;;;;12.13;10.68;;;;;;;;;;10018560;28;20065;-68
2023/01/06 13:16:46;;;;;;;10.50;9.70;;;;;;;;;;10016216;28;20532;-67
2023/01/06 13:21:43;;;;;;;9.75;8.90;;;;;;;;;;10023193;28;20101;-68
2023/01/06 13:26:42;;;;;;;9.82;8.70;;;;;;;;;;10020821;28;20084;-68
2023/01/06 13:31:51;;;;;;;9.75;8.68;;;;;;;;;;10013568;28;20170;-67
2023/01/06 13:36:53;;;;;;;9.23;8.23;;;;;;;;;;10014930;28;20518;-68
2023/01/06 13:41:53;;;;;;;18.08;10.35;;;;;;;;;;10027639;28;20726;-67
2023/01/06 13:46:52;;;;;;;11.20;9.07;;;;;;;;;;10015250;28;20071;-68
2023/01/06 13:51:49;;;;;;;9.85;8.63;;;;;;;;;;10029712;28;20570;-68
2023/01/06 13:57:05;;;;;;;12.48;10.23;;;;;;;;;;10021747;28;20207;-68
2023/01/06 14:02:02;;;;;;;12.85;11.18;;;;;;;;;;10027656;28;20154;-67
2023/01/06 14:06:59;;;;;;;10.48;9.48;;;;;;;;;;10022150;28;20051;-68
2023/01/06 14:12:06;;;;;;;11.57;10.13;;;;;;;;;;10020919;28;20051;-68
2023/01/06 14:17:04;;;;;;;11.90;10.57;;;;;;;;;;10022827;28;20062;-68
2023/01/06 14:22:17;;;;;;;10.50;9.43;;;;;;;;;;10014934;28;20064;-68
2023/01/06 14:27:14;;;;;;;12.88;10.50;;;;;;;;;;10013109;28;20043;-68
2023/01/06 14:32:30;;;;;;;10.75;9.82;;;;;;;;;;10023202;28;20046;-68
2023/01/06 14:37:40;;;;;;;12.70;11.48;;;;;;;;;;10021816;28;20135;-68
2023/01/06 14:42:40;;;;;;;11.48;10.27;;;;;;;;;;10026361;28;20043;-68
2023/01/06 14:47:41;;;;;;;12.77;9.73;;;;;;;;;;10027035;28;20391;-68
2023/01/06 14:52:39;;;;;;;14.68;10.10;;;;;;;;;;10020497;28;20296;-68
2023/01/06 14:57:37;;;;;;;11.77;10.45;;;;;;;;;;10021471;28;20051;-68
2023/01/06 15:02:33;;;;;;;16.23;11.10;;;;;;;;;;10026908;28;20056;-67
2023/01/06 15:07:30;;;;;;;14.25;10.50;;;;;;;;;;10027728;28;20102;-68
2023/01/06 15:12:30;;;;;;;14.35;10.38;;;;;;;;;;10025839;28;20830;-67
2023/01/06 15:17:27;;;;;;;17.05;12.15;;;;;;;;;;10025449;28;20055;-67
2023/01/06 15:22:24;;;;;;;12.90;11.52;;;;;;;;;;10027747;28;20044;-67
2023/01/06 15:27:20;;;;;;;13.90;12.55;;;;;;;;;;10028366;28;20043;-67
2023/01/06 15:32:17;;;;;;;13.52;11.70;;;;;;;;;;10037196;28;20102;-66
2023/01/06 15:37:17;;;;;;;15.15;12.15;;;;;;;;;;10034224;28;20047;-67
2023/01/06 15:42:14;;;;;;;14.75;11.98;;;;;;;;;;10030915;28;20054;-66
2023/01/06 15:47:11;;;;;;;12.82;11.68;;;;;;;;;;10025939;28;20127;-67
2023/01/06 15:52:16;;;;;;;13.05;11.23;;;;;;;;;;10033719;28;20127;-66
2023/01/06 15:57:13;;;;;;;14.48;12.98;;;;;;;;;;10030610;28;20063;-67
2023/01/06 16:02:16;;;;;;;14.30;12.88;;;;;;;;;;10025749;28;20067;-67
2023/01/06 16:07:43;;;;;;;12.00;10.98;;;;;;;;;;10026131;28;20663;-65
2023/01/06 16:12:39;;;;;;;15.52;11.43;;;;;;;;;;10020752;28;20055;-67
2023/01/06 16:17:43;;;;;;;11.85;10.75;;;;;;;;;;10030709;28;20051;-67
2023/01/06 16:22:46;;;;;;;13.07;11.90;;;;;;;;;;10028324;28;20130;-67
2023/01/06 16:27:45;;;;;;;14.00;12.77;;;;;;;;;;10023008;28;20487;-67
2023/01/06 16:32:41;;;;;;;13.88;12.68;;;;;;;;;;10029931;28;20662;-66
2023/01/06 16:37:38;;;;;;;15.82;12.70;;;;;;;;;;10029544;28;20418;-66
2023/01/06 16:42:38;;;;;;;16.67;13.40;;;;;;;;;;10029845;28;20672;-65
2023/01/06 16:47:34;;;;;;;13.45;12.05;;;;;;;;;;10031714;28;20608;-67
2023/01/06 16:52:31;;;;;;;14.50;13.07;;;;;;;;;;10026036;28;20040;-67
2023/01/06 16:57:27;;;;;;;14.35;13.02;;;;;;;;;;10023188;28;20075;-67
2023/01/06 17:02:23;;;;;;;16.27;13.50;;;;;;;;;;10024083;28;20082;-67
2023/01/06 17:07:20;;;;;;;14.75;13.25;;;;;;;;;;10028120;28;20060;-67
2023/01/06 17:13:33;;;;;;;14.73;13.27;;;;;;;;;;10024870;28;20052;-67
2023/01/06 17:17:40;;;;;;;18.70;14.50;;;;;;;;;;10022482;28;20469;-68
2023/01/06 17:22:37;;;;;;;15.00;13.70;;;;;;;;;;10021345;28;20071;-67
2023/01/06 17:27:34;;;;;;;15.48;14.07;;;;;;;;;;10020902;28;20036;-68
2023/01/06 17:32:36;;;;;;;15.20;13.77;;;;;;;;;;10021279;28;20135;-67
2023/01/06 17:37:34;;;;;;;16.27;14.75;;;;;;;;;;10014300;28;20548;-68
2023/01/06 17:42:34;;;;;;;15.90;14.57;;;;;;;;;;10013160;28;20043;-67
2023/01/06 17:47:40;;;;;;;16.00;14.45;;;;;;;;;;10013161;28;20098;-68
2023/01/06 17:52:40;;;;;;;15.25;13.65;;;;;;;;;;10017236;28;20574;-69
2023/01/06 17:57:38;;;;;;;21.70;14.68;;;;;;;;;;10013957;28;20051;-69
2023/01/06 18:02:37;;;;;;;16.95;14.80;;;;;;;;;;10013767;28;20578;-67
2023/01/06 18:07:34;;;;;;;20.00;14.90;;;;;;;;;;10010474;28;20051;-65
2023/01/06 18:12:30;;;;;;;18.05;15.43;;;;;;;;;;10011611;28;20651;-64
2023/01/06 18:17:28;;;;;;;17.40;15.85;;;;;;;;;;10013416;28;20497;-65
2023/01/06 18:22:26;;;;;;;16.52;15.02;;;;;;;;;;10018156;28;20075;-65
2023/01/06 18:27:23;;;;;;;17.25;15.10;;;;;;;;;;10011964;28;20056;-67
2023/01/06 18:32:20;;;;;;;17.83;14.63;;;;;;;;;;10016899;28;20123;-67
2023/01/06 18:37:20;;;;;;;15.23;13.38;;;;;;;;;;10010988;28;20055;-67
2023/01/06 18:42:24;;;;;;;19.42;12.95;;;;;;;;;;10024848;28;20124;-66
2023/01/06 18:47:21;;;;;;;16.48;12.73;;;;;;;;;;10018092;28;20162;-67
2023/01/06 18:52:36;;;;;;;15.52;12.23;;;;;;;;;;10021706;28;20050;-66
2023/01/06 18:57:32;;;;;;;15.35;12.60;;;;;;;;;;10031505;28;20055;-66
2023/01/06 19:02:37;;;;;;;13.75;12.43;;;;;;;;;;10029183;28;20078;-67
2023/01/06 19:07:33;;;;;;;19.05;14.43;;;;;;;;;;10030550;28;20522;-65
2023/01/06 19:12:34;;;;;;;16.73;13.88;;;;;;;;;;10034904;28;20152;-65
2023/01/06 19:17:37;;;;;;;17.23;13.27;;;;;;;;;;10028833;28;20564;-64
2023/01/06 19:22:35;;;;;;;15.40;14.02;;;;;;;;;;10030247;28;20048;-65
2023/01/06 19:27:31;;;;;;;16.27;14.60;;;;;;;;;;10030483;28;20047;-65
2023/01/06 19:32:32;;;;;;;21.27;15.48;;;;;;;;;;10025499;28;20700;-65
2023/01/06 19:37:29;;;;;;;18.25;14.68;;;;;;;;;;10024650;28;20050;-65
2023/01/06 19:42:28;;;;;;;17.08;14.27;;;;;;;;;;10010723;28;20058;-65
2023/01/06 19:47:30;;;;;;;19.27;14.80;;;;;;;;;;10027084;28;20528;-65
2023/01/06 19:52:26;;;;;;;16.30;14.80;;;;;;;;;;10030513;28;20071;-65
2023/01/06 19:57:27;;;;;;;17.23;15.52;;;;;;;;;;10026452;28;20051;-65
2023/01/06 20:02:29;;;;;;;17.88;16.10;;;;;;;;;;10029675;28;20055;-65
2023/01/06 20:07:25;;;;;;;22.20;16.73;;;;;;;;;;10030150;28;20039;-65
2023/01/06 20:12:21;;;;;;;17.50;15.90;;;;;;;;;;10033755;28;20051;-67
2023/01/06 20:17:18;;;;;;;19.17;17.35;;;;;;;;;;10028392;28;20078;-65
2023/01/06 20:22:14;;;;;;;17.75;15.98;;;;;;;;;;10036884;28;20044;-65
2023/01/06 20:27:10;;;;;;;17.95;16.10;;;;;;;;;;10026364;28;20048;-65
2023/01/06 20:32:07;;;;;;;18.50;16.88;;;;;;;;;;10030026;28;20162;-65
2023/01/06 20:37:04;;;;;;;18.65;16.80;;;;;;;;;;10028518;28;20055;-66
2023/01/06 20:42:03;;;;;;;19.08;17.20;;;;;;;;;;10027403;28;20055;-65
2023/01/06 20:46:59;;;;;;;20.25;18.30;;;;;;;;;;10023730;28;20063;-65
2023/01/06 20:51:56;;;;;;;20.05;18.30;;;;;;;;;;10013369;28;20138;-65
2023/01/06 20:56:52;;;;;;;18.85;17.23;;;;;;;;;;10022136;28;20066;-65
2023/01/06 21:01:49;;;;;;;20.52;18.65;;;;;;;;;;10029939;28;20044;-65
2023/01/06 21:06:45;;;;;;;19.60;17.92;;;;;;;;;;10027319;28;20040;-65
2023/01/06 21:11:42;;;;;;;21.38;19.40;;;;;;;;;;10029298;28;20039;-65
2023/01/06 21:16:38;;;;;;;21.75;19.98;;;;;;;;;;10026904;28;20082;-65
2023/01/06 21:21:34;;;;;;;20.00;18.35;;;;;;;;;;10021792;28;20048;-65
2023/01/06 21:26:31;;;;;;;24.13;21.80;;;;;;;;;;10022067;28;20080;-65
2023/01/06 21:31:27;;;;;;;23.38;21.45;;;;;;;;;;10024543;28;20052;-64
2023/01/06 21:36:23;;;;;;;23.23;21.55;;;;;;;;;;10025138;28;20105;-64
2023/01/06 21:46:38;;;;;;;24.17;21.98;;;;;;;;;;10010796;28;20126;-67
2023/01/06 21:51:35;;;;;;;24.38;22.15;;;;;;;;;;10018251;28;20569;-66
2023/01/06 21:56:31;;;;;;;25.52;23.17;;;;;;;;;;10014536;28;20063;-67
2023/01/06 22:01:28;;;;;;;24.80;23.00;;;;;;;;;;10011528;28;20417;-66
2023/01/06 22:06:27;;;;;;;28.42;26.02;;;;;;;;;;10011948;28;20043;-67
2023/01/06 22:11:23;;;;;;;29.42;26.63;;;;;;;;;;10014421;28;20047;-67
2023/01/06 22:16:20;;;;;;;27.08;24.55;;;;;;;;;;10010717;28;20098;-67
2023/01/06 22:21:16;;;;;;;28.92;26.42;;;;;;;;;;10018977;28;20403;-67
2023/01/06 22:26:12;;;;;;;29.60;26.95;;;;;;;;;;10019408;28;20058;-67
2023/01/06 22:31:09;;;;;;;28.73;25.67;;;;;;;;;;10020456;28;20047;-67
2023/01/06 22:36:05;;;;;;;27.45;24.83;;;;;;;;;;10029926;28;20070;-67
2023/01/06 22:41:03;;;;;;;27.40;25.42;;;;;;;;;;10033203;28;20521;-67
2023/01/06 22:45:59;;;;;;;29.48;27.00;;;;;;;;;;10027310;28;20054;-67
2023/01/06 22:50:56;;;;;;;28.98;26.80;;;;;;;;;;10024865;28;20055;-67
2023/01/06 22:55:56;;;;;;;30.77;28.52;;;;;;;;;;10020334;28;20675;-67
2023/01/06 23:00:53;;;;;;;29.25;27.02;;;;;;;;;;10026465;28;20442;-66
2023/01/06 23:05:53;;;;;;;30.63;28.48;;;;;;;;;;10030435;28;20470;-66
2023/01/06 23:10:49;;;;;;;33.20;30.98;;;;;;;;;;10030199;28;20090;-66
2023/01/06 23:15:46;;;;;;;32.78;30.33;;;;;;;;;;10030428;28;20869;-68
2023/01/06 23:20:42;;;;;;;34.80;32.20;;;;;;;;;;10037431;28;20578;-67
2023/01/06 23:25:38;;;;;;;34.45;32.10;;;;;;;;;;10034062;28;20470;-68
2023/01/06 23:30:35;;;;;;;33.28;31.10;;;;;;;;;;10038923;28;20052;-68
2023/01/06 23:35:31;;;;;;;35.58;32.55;;;;;;;;;;10033109;28;20047;-68
2023/01/06 23:40:27;;;;;;;33.92;31.63;;;;;;;;;;10027230;28;20147;-68
2023/01/06 23:45:23;;;;;;;37.05;34.03;;;;;;;;;;10033925;28;20056;-66
2023/01/06 23:50:20;;;;;;;36.70;34.10;;;;;;;;;;10028331;28;20056;-67
2023/01/06 23:55:16;;;;;;;37.60;35.10;;;;;;;;;;10033708;28;20066;-66
